createdAt,value
2022-09-07T00:00:13.265Z,146.23
2022-09-07T00:02:42.525Z,115.95
2022-09-07T00:05:12.143Z,120.03
2022-09-07T00:07:41.350Z,130.60
2022-09-07T00:10:11.297Z,108.97
2022-09-07T00:12:40.688Z,108.65
2022-09-07T00:15:13.346Z,107.22
2022-09-07T00:20:13.418Z,91.63
2022-09-07T00:22:42.556Z,93.57
2022-09-07T00:25:11.737Z,106.43
2022-09-07T00:27:41.427Z,111.20
2022-09-07T00:30:13.210Z,106.75
2022-09-07T00:32:42.365Z,102.10
2022-09-07T00:35:12.785Z,104.97
2022-09-07T00:37:41.933Z,106.05
2022-09-07T00:40:11.870Z,104.82
2022-09-07T00:42:41.136Z,125.07
2022-09-07T00:45:17.880Z,131.80
2022-09-07T00:47:55.912Z,136.57
2022-09-07T00:50:30.263Z,122.13
2022-09-07T00:53:06.331Z,124.13
2022-09-07T00:55:39.388Z,128.55
2022-09-07T00:58:09.550Z,119.78
2022-09-07T01:00:42.488Z,128.15
2022-09-07T01:03:12.780Z,129.30
2022-09-07T01:05:47.504Z,92.35
2022-09-07T01:08:17.413Z,86.93
2022-09-07T01:10:47.510Z,95.63
2022-09-07T01:13:16.691Z,99.70
2022-09-07T01:15:59.508Z,107.15
2022-09-07T01:21:26.535Z,148.32
2022-09-07T01:24:42.547Z,110.30
2022-09-07T01:27:56.866Z,111.50
2022-09-07T01:30:26.935Z,100.60
2022-09-07T01:33:24.194Z,127.45
2022-09-07T01:36:07.059Z,119.75
2022-09-07T01:41:16.589Z,104.45
2022-09-07T01:43:53.884Z,108.45
2022-09-07T01:46:31.245Z,127.47
2022-09-07T01:49:10.585Z,123.25
2022-09-07T01:51:46.223Z,129.02
2022-09-07T01:54:23.584Z,125.80
2022-09-07T01:56:59.710Z,129.50
2022-09-07T01:59:35.430Z,116.47
2022-09-07T02:02:10.318Z,119.65
2022-09-07T02:04:44.812Z,139.23
2022-09-07T02:07:21.741Z,130.48
2022-09-07T02:09:58.163Z,112.30
2022-09-07T02:12:38.466Z,114.65
2022-09-07T02:15:15.858Z,101.03
2022-09-07T02:17:49.660Z,121.40
2022-09-07T02:20:23.899Z,112.53
2022-09-07T02:22:57.421Z,102.15
2022-09-07T02:25:30.697Z,118.43
2022-09-07T02:28:06.393Z,128.13
2022-09-07T02:30:37.183Z,114.70
2022-09-07T02:33:06.856Z,115.57
2022-09-07T02:35:36.690Z,110.78
2022-09-07T02:38:08.542Z,105.35
2022-09-07T02:40:37.853Z,112.18
2022-09-07T02:43:09.950Z,115.35
2022-09-07T02:45:58.753Z,119.80
2022-09-07T02:48:40.600Z,124.03
2022-09-07T02:51:19.071Z,108.13
2022-09-07T02:54:25.401Z,137.73
2022-09-07T02:57:06.450Z,105.82
2022-09-07T02:59:49.646Z,119.03
2022-09-07T03:02:30.503Z,103.05
2022-09-07T03:05:06.945Z,98.00
2022-09-07T03:07:44.144Z,116.10
2022-09-07T03:10:17.069Z,105.07
2022-09-07T03:15:19.895Z,81.40
2022-09-07T03:17:50.563Z,92.85
2022-09-07T03:20:21.196Z,128.68
2022-09-07T03:22:52.819Z,108.90
2022-09-07T03:25:22.985Z,106.68
2022-09-07T03:27:52.251Z,107.90
2022-09-07T03:30:21.729Z,112.00
2022-09-07T03:32:52.801Z,100.90
2022-09-07T03:35:22.592Z,99.88
2022-09-07T03:37:51.953Z,110.40
2022-09-07T03:40:21.317Z,135.57
2022-09-07T03:42:51.193Z,137.50
2022-09-07T03:45:20.961Z,124.05
2022-09-07T03:47:51.525Z,134.68
2022-09-07T03:50:20.739Z,102.38
2022-09-07T03:52:49.921Z,110.60
2022-09-07T03:55:19.134Z,137.00
2022-09-07T03:57:48.417Z,106.03
2022-09-07T04:00:18.004Z,100.80
2022-09-07T04:02:47.184Z,107.28
2022-09-07T04:05:18.265Z,103.45
2022-09-07T04:07:49.802Z,105.95
2022-09-07T04:10:19.235Z,100.60
2022-09-07T04:12:48.409Z,102.90
2022-09-07T04:15:17.826Z,99.25
2022-09-07T04:17:47.088Z,102.05
2022-09-07T04:20:17.845Z,98.35
2022-09-07T04:22:53.661Z,128.02
2022-09-07T04:25:23.463Z,98.82
2022-09-07T04:27:52.744Z,100.30
2022-09-07T04:30:21.889Z,99.00
2022-09-07T04:32:51.271Z,98.75
2022-09-07T04:35:23.023Z,102.13
2022-09-07T04:37:52.296Z,96.40
2022-09-07T04:40:21.638Z,95.03
2022-09-07T04:42:51.331Z,109.05
2022-09-07T04:45:20.582Z,103.45
2022-09-07T04:47:49.996Z,101.20
2022-09-07T04:50:19.792Z,101.38
2022-09-07T04:52:50.654Z,99.68
2022-09-07T04:55:19.821Z,104.10
2022-09-07T04:57:51.226Z,98.63
2022-09-07T05:00:20.683Z,107.95
2022-09-07T05:02:49.939Z,101.18
2022-09-07T05:05:19.711Z,104.28
2022-09-07T05:07:50.311Z,106.63
2022-09-07T05:10:19.691Z,118.10
2022-09-07T05:12:48.955Z,102.70
2022-09-07T05:15:18.231Z,107.07
2022-09-07T05:17:47.518Z,103.00
2022-09-07T05:20:20.190Z,103.22
2022-09-07T05:22:59.603Z,108.00
2022-09-07T05:25:30.264Z,101.70
2022-09-07T05:27:59.838Z,104.47
2022-09-07T05:33:18.299Z,122.55
2022-09-07T05:35:58.521Z,116.90
2022-09-07T05:38:29.805Z,87.13
2022-09-07T05:40:59.511Z,88.80
2022-09-07T05:43:28.710Z,81.68
2022-09-07T05:45:57.967Z,95.95
2022-09-07T05:48:27.558Z,99.10
2022-09-07T05:50:56.863Z,90.18
2022-09-07T05:53:26.081Z,97.97
2022-09-07T05:56:03.958Z,103.43
2022-09-07T05:58:36.772Z,91.35
2022-09-07T06:01:09.261Z,95.07
2022-09-07T06:03:40.731Z,87.93
2022-09-07T06:06:12.567Z,90.47
2022-09-07T06:08:47.718Z,96.17
2022-09-07T06:11:20.885Z,86.43
2022-09-07T06:13:50.554Z,91.60
2022-09-07T06:16:20.950Z,90.05
2022-09-07T06:18:51.311Z,86.95
2022-09-07T06:21:22.141Z,89.05
2022-09-07T06:23:52.668Z,103.97
2022-09-07T06:26:23.290Z,97.85
2022-09-07T06:28:57.209Z,92.97
2022-09-07T06:31:28.520Z,97.00
2022-09-07T06:33:58.916Z,137.18
2022-09-07T06:36:29.740Z,91.30
2022-09-07T06:39:01.574Z,94.55
2022-09-07T06:44:23.504Z,93.78
2022-09-07T06:49:29.051Z,106.95
2022-09-07T06:51:58.272Z,98.22
2022-09-07T06:57:18.104Z,105.00
2022-09-07T06:59:47.399Z,100.25
2022-09-07T07:02:16.586Z,111.63
2022-09-07T07:04:46.730Z,97.25
2022-09-07T07:07:16.202Z,99.28
2022-09-07T07:09:45.477Z,107.00
2022-09-07T07:12:14.739Z,105.22
2022-09-07T07:14:45.485Z,177.68
2022-09-07T07:17:14.878Z,135.80
2022-09-07T07:19:44.190Z,129.10
2022-09-07T07:22:42.603Z,104.88
2022-09-07T07:25:03.516Z,154.55
2022-09-07T07:27:32.898Z,96.25
2022-09-07T07:30:03.860Z,99.10
2022-09-07T07:32:33.200Z,120.68
2022-09-07T07:35:02.444Z,181.30
2022-09-07T07:37:32.434Z,111.20
2022-09-07T07:40:19.123Z,111.53
2022-09-07T07:42:50.999Z,96.00
2022-09-07T07:48:13.786Z,114.22
2022-09-07T07:50:42.911Z,123.63
2022-09-07T07:56:02.148Z,90.18
2022-09-07T07:58:32.675Z,109.47
2022-09-07T08:01:08.158Z,106.72
2022-09-07T08:03:40.320Z,107.85
2022-09-07T08:06:11.632Z,147.00
2022-09-07T08:08:43.153Z,127.65
2022-09-07T08:11:16.940Z,113.50
2022-09-07T08:13:49.604Z,129.98
2022-09-07T08:18:49.738Z,105.30
2022-09-07T08:21:18.983Z,96.35
2022-09-07T08:23:48.168Z,126.38
2022-09-07T08:26:17.342Z,114.75
2022-09-07T08:28:46.825Z,137.15
2022-09-07T08:31:17.908Z,122.35
2022-09-07T08:33:48.508Z,128.73
2022-09-07T08:36:19.992Z,124.97
2022-09-07T08:38:49.588Z,120.82
2022-09-07T08:41:47.421Z,150.50
2022-09-07T08:44:24.923Z,153.35
2022-09-07T08:47:00.417Z,135.88
2022-09-07T08:49:41.066Z,124.40
2022-09-07T08:52:15.377Z,129.38
2022-09-07T08:54:58.497Z,116.55
2022-09-07T08:57:34.035Z,126.30
2022-09-07T09:00:08.741Z,116.70
2022-09-07T09:02:43.562Z,110.47
2022-09-07T09:05:40.807Z,118.13
2022-09-07T09:08:25.534Z,122.15
2022-09-07T09:11:05.385Z,125.28
2022-09-07T09:13:48.855Z,119.45
2022-09-07T09:16:24.885Z,131.55
2022-09-07T09:19:20.261Z,134.75
2022-09-07T09:21:53.834Z,120.60
2022-09-07T09:24:33.595Z,115.15
2022-09-07T09:27:02.733Z,131.25
2022-09-07T09:29:32.227Z,129.52
2022-09-07T09:32:01.448Z,145.18
2022-09-07T09:34:34.684Z,139.63
2022-09-07T09:37:06.045Z,146.57
2022-09-07T09:39:36.929Z,147.45
2022-09-07T09:42:18.610Z,192.13
2022-09-07T09:44:48.661Z,156.68
2022-09-07T09:47:32.748Z,144.18
2022-09-07T09:50:08.102Z,129.63
2022-09-07T09:52:47.946Z,131.30
2022-09-07T10:06:23.758Z,133.88
2022-09-07T10:08:58.623Z,115.18
2022-09-07T10:14:43.432Z,124.13
2022-09-07T10:17:15.883Z,137.65
2022-09-07T10:19:45.254Z,121.30
2022-09-07T10:22:33.249Z,146.85
2022-09-07T10:25:04.810Z,153.27
2022-09-07T10:27:37.063Z,170.40
2022-09-07T10:30:16.323Z,140.07
2022-09-07T10:33:03.180Z,124.68
2022-09-07T10:35:36.842Z,183.30
2022-09-07T10:38:17.676Z,151.35
2022-09-07T10:40:54.964Z,148.02
2022-09-07T10:43:42.497Z,145.15
2022-09-07T10:49:25.679Z,135.63
2022-09-07T10:52:14.390Z,165.05
2022-09-07T10:54:55.283Z,148.88
2022-09-07T10:57:39.316Z,169.05
2022-09-07T11:00:14.467Z,181.57
2022-09-07T11:03:26.694Z,208.35
2022-09-07T11:06:12.155Z,155.23
2022-09-07T11:09:17.836Z,181.68
2022-09-07T11:12:03.586Z,242.20
2022-09-07T11:14:43.758Z,163.93
2022-09-07T11:17:19.385Z,192.85
2022-09-07T11:19:57.511Z,201.55
2022-09-07T11:22:36.339Z,220.40
2022-09-07T11:25:34.031Z,168.32
2022-09-07T11:28:09.978Z,190.70
2022-09-07T11:30:47.287Z,210.85
2022-09-07T11:33:22.977Z,165.98
2022-09-07T11:35:58.932Z,179.73
2022-09-07T11:38:35.382Z,157.35
2022-09-07T11:41:24.841Z,163.30
2022-09-07T11:44:07.982Z,146.07
2022-09-07T11:46:46.002Z,147.80
2022-09-07T11:49:21.334Z,155.77
2022-09-07T11:51:55.048Z,139.57
2022-09-07T11:54:39.710Z,162.15
2022-09-07T11:57:38.276Z,151.90
2022-09-07T12:00:19.061Z,135.35
2022-09-07T12:03:34.548Z,141.02
2022-09-07T12:07:03.637Z,136.18
2022-09-07T12:09:58.533Z,125.05
2022-09-07T12:13:14.963Z,124.97
2022-09-07T12:15:55.136Z,151.07
2022-09-07T12:18:56.826Z,157.93
2022-09-07T12:21:41.605Z,146.30
2022-09-07T12:24:42.495Z,176.98
2022-09-07T12:27:40.034Z,230.35
2022-09-07T12:30:57.187Z,199.25
2022-09-07T12:33:36.990Z,236.38
2022-09-07T12:36:50.154Z,243.07
2022-09-07T12:39:28.620Z,208.32
2022-09-07T12:42:32.518Z,217.50
2022-09-07T12:45:51.229Z,217.15
2022-09-07T12:48:44.493Z,212.70
2022-09-07T12:54:23.499Z,254.85
2022-09-07T13:00:04.475Z,216.07
2022-09-07T13:09:34.495Z,273.25
2022-09-07T13:15:42.373Z,238.50
2022-09-07T13:18:28.635Z,229.10
2022-09-07T13:21:37.567Z,199.93
2022-09-07T13:24:46.321Z,259.80
2022-09-07T13:27:47.035Z,251.32
2022-09-07T13:30:46.883Z,259.92
2022-09-07T13:33:48.341Z,231.15
2022-09-07T13:36:45.951Z,227.63
2022-09-07T13:39:21.075Z,261.38
2022-09-07T13:41:54.379Z,224.88
2022-09-07T13:44:26.997Z,190.98
2022-09-07T13:47:10.312Z,180.13
2022-09-07T13:49:58.892Z,195.15
2022-09-07T13:52:45.044Z,216.32
2022-09-07T13:55:34.372Z,244.88
2022-09-07T13:58:17.954Z,262.55
2022-09-07T14:00:56.068Z,221.60
2022-09-07T14:03:28.981Z,307.10
2022-09-07T14:06:18.181Z,188.85
2022-09-07T14:08:51.650Z,250.65
2022-09-07T14:11:23.457Z,242.70
2022-09-07T14:14:16.218Z,258.33
2022-09-07T14:16:49.265Z,197.40
2022-09-07T14:19:26.097Z,278.20
2022-09-07T14:22:03.402Z,290.92
2022-09-07T14:24:37.525Z,252.57
2022-09-07T14:27:19.635Z,252.45
2022-09-07T14:29:49.130Z,232.32
2022-09-07T14:32:23.637Z,227.63
2022-09-07T14:34:53.504Z,290.15
2022-09-07T14:37:24.994Z,187.05
2022-09-07T14:39:56.477Z,234.15
2022-09-07T14:42:26.680Z,312.87
2022-09-07T14:45:34.039Z,241.68
2022-09-07T14:48:16.386Z,246.15
2022-09-07T14:51:01.003Z,248.10
2022-09-07T14:53:39.592Z,265.38
2022-09-07T14:56:12.304Z,327.70
2022-09-07T14:58:41.755Z,253.98
2022-09-07T15:04:20.293Z,249.43
2022-09-07T15:07:04.793Z,230.52
2022-09-07T15:09:38.735Z,233.27
2022-09-07T15:12:29.991Z,236.10
2022-09-07T15:15:22.141Z,245.95
2022-09-07T15:17:51.983Z,211.13
2022-09-07T15:20:37.439Z,233.13
2022-09-07T15:23:10.478Z,239.93
2022-09-07T15:25:41.220Z,220.30
2022-09-07T15:34:10.137Z,241.07
2022-09-07T15:36:41.183Z,221.65
2022-09-07T15:39:18.559Z,231.77
2022-09-07T15:41:48.109Z,213.90
2022-09-07T15:44:24.955Z,246.85
2022-09-07T15:49:50.250Z,221.82
2022-09-07T15:52:20.881Z,248.93
2022-09-07T15:54:50.205Z,321.13
2022-09-07T16:00:12.931Z,235.73
2022-09-07T16:05:31.739Z,229.35
2022-09-07T16:10:55.550Z,204.90
2022-09-07T16:13:25.728Z,197.52
2022-09-07T16:15:59.964Z,220.75
2022-09-07T16:18:33.034Z,227.35
2022-09-07T16:21:11.857Z,236.65
2022-09-07T16:23:44.477Z,229.90
2022-09-07T16:26:14.816Z,208.75
2022-09-07T16:28:46.827Z,249.38
2022-09-07T16:31:22.352Z,278.15
2022-09-07T16:33:51.936Z,233.30
2022-09-07T16:36:23.704Z,242.55
2022-09-07T16:38:59.174Z,237.00
2022-09-07T16:41:31.681Z,255.15
2022-09-07T16:44:01.111Z,235.82
2022-09-07T16:46:34.865Z,260.98
2022-09-07T16:49:05.628Z,257.60
2022-09-07T16:51:35.671Z,279.25
2022-09-07T16:54:04.985Z,236.07
2022-09-07T16:56:38.821Z,243.18
2022-09-07T16:59:10.504Z,231.70
2022-09-07T17:01:41.146Z,223.45
2022-09-07T17:04:11.637Z,224.15
2022-09-07T17:06:41.768Z,244.63
2022-09-07T17:09:15.026Z,222.77
2022-09-07T17:11:44.420Z,204.48
2022-09-07T17:14:14.138Z,228.57
2022-09-07T17:16:44.901Z,258.27
2022-09-07T17:19:31.852Z,227.10
2022-09-07T17:22:01.782Z,205.57
2022-09-07T17:24:32.252Z,204.75
2022-09-07T17:27:03.135Z,231.40
2022-09-07T17:29:37.021Z,223.20
2022-09-07T17:32:24.888Z,227.10
2022-09-07T17:34:55.500Z,212.40
2022-09-07T17:37:25.663Z,202.50
2022-09-07T17:39:55.076Z,214.18
2022-09-07T17:42:26.287Z,176.48
2022-09-07T17:45:14.917Z,223.80
2022-09-07T17:47:45.838Z,185.18
2022-09-07T17:50:15.555Z,222.60
2022-09-07T17:52:46.035Z,219.55
2022-09-07T17:55:15.519Z,203.63
2022-09-07T17:57:44.712Z,291.95
2022-09-07T18:00:15.881Z,185.38
2022-09-07T18:02:46.595Z,216.48
2022-09-07T18:05:15.886Z,239.02
2022-09-07T18:07:45.083Z,248.20
2022-09-07T18:10:14.571Z,197.90
2022-09-07T18:12:43.752Z,234.15
2022-09-07T18:15:13.115Z,193.48
2022-09-07T18:17:42.441Z,192.15
2022-09-07T18:20:13.105Z,170.43
2022-09-07T18:22:42.553Z,172.80
2022-09-07T18:25:11.952Z,177.43
2022-09-07T18:27:41.397Z,176.10
2022-09-07T18:30:12.318Z,197.80
2022-09-07T18:32:41.514Z,176.73
2022-09-07T18:35:12.724Z,228.18
2022-09-07T18:37:42.045Z,217.15
2022-09-07T18:40:12.210Z,191.35
2022-09-07T18:42:42.044Z,205.10
2022-09-07T18:45:27.761Z,159.20
2022-09-07T18:47:57.501Z,240.30
2022-09-07T18:50:28.039Z,183.15
2022-09-07T18:53:04.126Z,183.18
2022-09-07T18:55:43.502Z,199.80
2022-09-07T18:58:12.645Z,275.23
2022-09-07T19:00:45.337Z,171.60
2022-09-07T19:03:14.972Z,161.15
2022-09-07T19:05:50.543Z,245.15
2022-09-07T19:08:28.634Z,168.88
2022-09-07T19:10:58.107Z,187.15
2022-09-07T19:13:27.617Z,167.77
2022-09-07T19:16:07.723Z,139.32
2022-09-07T19:18:40.540Z,152.88
2022-09-07T19:21:16.707Z,153.45
2022-09-07T19:23:53.501Z,161.57
2022-09-07T19:26:23.424Z,171.95
2022-09-07T19:28:54.981Z,175.18
2022-09-07T19:31:25.560Z,156.20
2022-09-07T19:33:56.991Z,194.13
2022-09-07T19:36:28.537Z,177.38
2022-09-07T19:38:58.059Z,174.77
2022-09-07T19:41:28.318Z,164.73
2022-09-07T19:44:01.878Z,188.32
2022-09-07T19:46:31.685Z,148.18
2022-09-07T19:49:02.952Z,144.15
2022-09-07T19:51:39.352Z,133.70
2022-09-07T19:54:15.401Z,135.23
2022-09-07T19:56:46.643Z,196.50
2022-09-07T19:59:16.370Z,158.57
2022-09-07T20:01:48.017Z,141.48
2022-09-07T20:04:20.545Z,142.05
2022-09-07T20:06:56.519Z,151.32
2022-09-07T20:09:29.429Z,180.43
2022-09-07T20:12:01.973Z,135.13
2022-09-07T20:17:01.454Z,119.10
2022-09-07T20:19:31.085Z,116.95
2022-09-07T20:22:01.824Z,144.57
2022-09-07T20:24:31.450Z,141.60
2022-09-07T20:27:02.829Z,157.05
2022-09-07T20:29:32.522Z,142.48
2022-09-07T20:32:05.258Z,135.00
2022-09-07T20:34:37.880Z,172.40
2022-09-07T20:39:39.604Z,129.05
2022-09-07T20:42:09.173Z,121.28
2022-09-07T20:44:38.588Z,118.38
2022-09-07T20:47:07.979Z,120.65
2022-09-07T20:49:37.438Z,147.80
2022-09-07T20:52:08.168Z,146.88
2022-09-07T20:54:38.934Z,133.52
2022-09-07T20:57:08.213Z,278.75
2022-09-07T20:59:37.473Z,264.58
2022-09-07T21:02:07.173Z,143.77
2022-09-07T21:04:36.995Z,178.93
2022-09-07T21:07:07.621Z,184.70
2022-09-07T21:09:37.069Z,252.68
2022-09-07T21:12:06.630Z,269.90
2022-09-07T21:14:36.177Z,137.23
2022-09-07T21:17:05.860Z,166.10
2022-09-07T21:19:36.976Z,142.43
2022-09-07T21:22:07.698Z,133.75
2022-09-07T21:24:36.914Z,124.45
2022-09-07T21:27:07.024Z,154.55
2022-09-07T21:29:36.351Z,114.13
2022-09-07T21:32:06.217Z,130.82
2022-09-07T21:34:35.453Z,115.65
2022-09-07T21:37:04.683Z,120.30
2022-09-07T21:39:35.356Z,128.00
2022-09-07T21:42:05.568Z,112.90
2022-09-07T21:44:34.711Z,127.40
2022-09-07T21:47:03.882Z,121.53
2022-09-07T21:49:33.228Z,133.93
2022-09-07T21:52:02.708Z,120.18
2022-09-07T21:54:31.834Z,176.15
2022-09-07T21:57:02.443Z,119.55
2022-09-07T21:59:32.002Z,111.18
2022-09-07T22:02:01.319Z,134.82
2022-09-07T22:04:31.227Z,124.30
2022-09-07T22:07:00.521Z,132.05
2022-09-07T22:09:29.681Z,130.35
2022-09-07T22:12:00.192Z,155.32
2022-09-07T22:14:30.766Z,122.90
2022-09-07T22:17:00.291Z,151.10
2022-09-07T22:19:29.481Z,122.65
2022-09-07T22:21:58.919Z,112.90
2022-09-07T22:24:28.343Z,161.70
2022-09-07T22:26:57.556Z,135.98
2022-09-07T22:29:27.038Z,143.80
2022-09-07T22:31:57.875Z,134.15
2022-09-07T22:34:28.449Z,123.32
2022-09-07T22:36:58.384Z,117.25
2022-09-07T22:39:27.863Z,136.73
2022-09-07T22:41:57.029Z,126.68
2022-09-07T22:44:27.611Z,130.68
2022-09-07T22:46:58.207Z,143.63
2022-09-07T22:49:27.735Z,127.90
2022-09-07T22:51:57.046Z,113.88
2022-09-07T22:54:26.169Z,124.03
2022-09-07T22:56:55.370Z,132.57
2022-09-07T22:59:24.498Z,128.60
2022-09-07T23:01:54.118Z,135.45
2022-09-07T23:04:27.434Z,118.03
2022-09-07T23:07:00.204Z,126.15
2022-09-07T23:09:29.682Z,177.35
2022-09-07T23:11:58.865Z,117.35
2022-09-07T23:14:28.180Z,176.18
2022-09-07T23:16:57.558Z,129.07
2022-09-07T23:19:28.252Z,154.77
2022-09-07T23:21:57.446Z,127.68
2022-09-07T23:24:26.650Z,147.77
2022-09-07T23:26:55.831Z,126.43
2022-09-07T23:29:25.009Z,140.80
2022-09-07T23:31:54.203Z,190.05
2022-09-07T23:34:23.412Z,143.10
2022-09-07T23:36:54.145Z,145.50
2022-09-07T23:39:23.555Z,121.65
2022-09-07T23:41:52.729Z,187.32
2022-09-07T23:44:22.172Z,129.90
2022-09-07T23:46:51.473Z,144.20
2022-09-07T23:49:21.503Z,120.50
2022-09-07T23:51:50.694Z,121.97
2022-09-07T23:54:21.305Z,169.13
2022-09-07T23:56:50.484Z,126.25
2022-09-07T23:59:19.656Z,127.05
